Time;durP1;ratioP1;P1;durP2;ratioP2;P2;SDS_P1;SDS_P2;PMS_P1;PMS_P2;Temp;Humidity;BMP_temperature;BMP_pressure;BME280_temperature;BME280_humidity;BME280_pressure;Samples;Min_cycle;Max_cycle;Signal;HPM_P1;HPM_P2
2023/01/15 00:01:48;;;;;;;5.93;2.87;;;28.10;54.00;;;;;;5051216;28;20203;-72
2023/01/15 00:04:17;;;;;;;9.33;3.67;;;28.40;53.10;;;;;;5052355;28;20199;-72
2023/01/15 00:06:44;;;;;;;3.60;1.60;;;28.50;52.50;;;;;;5051408;28;20225;-71
2023/01/15 00:09:15;;;;;;;4.30;1.00;;;28.60;53.20;;;;;;5051666;28;20199;-72
2023/01/15 00:11:42;;;;;;;5.13;0.90;;;28.30;52.90;;;;;;5049075;28;20183;-72
2023/01/15 00:14:11;;;;;;;4.00;1.10;;;28.60;52.80;;;;;;5051459;28;20184;-72
2023/01/15 00:16:39;;;;;;;7.30;2.97;;;28.60;52.90;;;;;;5050387;28;20208;-71
2023/01/15 00:19:10;;;;;;;4.20;1.50;;;28.60;53.10;;;;;;5050450;28;20295;-72
2023/01/15 00:21:38;;;;;;;6.07;1.57;;;28.30;53.10;;;;;;5052727;28;20195;-71
2023/01/15 00:29:36;;;;;;;6.47;1.63;;;28.00;54.30;;;;;;5050245;28;20195;-71
2023/01/15 00:32:07;;;;;;;7.47;1.50;;;28.20;54.10;;;;;;5048238;28;20559;-72
2023/01/15 00:34:34;;;;;;;4.10;1.20;;;28.50;53.60;;;;;;5049949;28;20184;-72
2023/01/15 00:37:02;;;;;;;6.03;1.77;;;28.60;53.80;;;;;;5049120;28;20309;-72
2023/01/15 00:39:30;;;;;;;5.03;1.50;;;28.80;53.30;;;;;;5048852;28;20830;-71
2023/01/15 00:41:57;;;;;;;4.57;1.20;;;28.40;53.70;;;;;;5052544;28;20186;-72
2023/01/15 00:44:24;;;;;;;8.73;4.00;;;28.40;53.50;;;;;;5050941;28;20188;-71
2023/01/15 00:46:52;;;;;;;4.87;1.57;;;28.50;54.20;;;;;;5051096;28;20194;-71
2023/01/15 00:49:19;;;;;;;6.13;1.20;;;28.60;53.10;;;;;;5048830;28;20244;-72
2023/01/15 00:51:48;;;;;;;2.57;1.20;;;28.60;52.40;;;;;;5050939;28;20234;-71
2023/01/15 00:54:16;;;;;;;5.67;2.17;;;28.40;53.40;;;;;;5050746;28;20176;-71
2023/01/15 00:56:44;;;;;;;1.90;1.10;;;28.40;53.10;;;;;;5048759;28;20811;-72
2023/01/15 00:59:11;;;;;;;3.77;1.20;;;28.80;52.30;;;;;;5052390;28;20190;-72
2023/01/15 01:01:38;;;;;;;5.77;1.27;;;29.20;52.90;;;;;;5052305;28;20172;-72
2023/01/15 01:04:06;;;;;;;4.97;1.37;;;29.20;51.80;;;;;;5048495;28;20196;-71
2023/01/15 01:06:33;;;;;;;3.83;1.10;;;29.00;52.00;;;;;;5049969;28;20180;-72
2023/01/15 01:09:01;;;;;;;6.23;1.77;;;29.30;52.50;;;;;;5051704;28;20625;-71
2023/01/15 01:11:32;;;;;;;4.73;1.40;;;29.30;51.90;;;;;;5045470;28;20186;-71
2023/01/15 01:14:01;;;;;;;3.60;1.10;;;28.70;54.20;;;;;;5050041;28;20199;-71
2023/01/15 01:16:32;;;;;;;4.97;1.60;;;29.00;53.50;;;;;;5051077;28;20258;-72
2023/01/15 01:19:02;;;;;;;8.80;1.60;;;28.80;53.50;;;;;;5050085;28;20180;-71
2023/01/15 01:21:30;;;;;;;3.97;1.47;;;28.90;53.80;;;;;;5051899;28;20262;-71
2023/01/15 01:24:01;;;;;;;7.63;1.30;;;28.80;53.00;;;;;;5052528;28;20604;-73
2023/01/15 01:26:29;;;;;;;4.53;1.30;;;28.70;53.20;;;;;;5051937;28;20550;-71
2023/01/15 01:28:57;;;;;;;2.73;1.47;;;28.70;52.80;;;;;;5051367;28;20712;-70
2023/01/15 01:31:26;;;;;;;5.87;1.27;;;28.60;53.10;;;;;;5051172;28;20187;-71
2023/01/15 01:33:55;;;;;;;6.93;1.27;;;28.70;53.30;;;;;;5051912;28;20609;-75
2023/01/15 01:36:29;;;;;;;7.50;1.30;;;28.60;53.70;;;;;;5048340;28;20211;-72
2023/01/15 01:38:56;;;;;;;2.80;1.50;;;28.30;54.90;;;;;;5050047;28;20608;-71
2023/01/15 01:41:24;;;;;;;3.80;1.13;;;28.50;55.00;;;;;;5049962;28;20176;-74
2023/01/15 01:43:57;;;;;;;6.73;1.20;;;28.50;54.90;;;;;;5051440;28;20187;-72
2023/01/15 01:46:27;;;;;;;4.13;1.30;;;28.60;54.90;;;;;;5048086;28;20199;-75
2023/01/15 01:49:16;;;;;;;7.23;1.63;;;28.50;55.10;;;;;;5050952;28;20575;-72
2023/01/15 01:51:48;;;;;;;7.40;1.53;;;28.80;54.50;;;;;;5049168;28;20281;-71
2023/01/15 01:54:19;;;;;;;5.67;1.40;;;28.70;54.60;;;;;;5049421;28;20533;-72
2023/01/15 01:56:49;;;;;;;4.77;1.20;;;28.60;54.60;;;;;;5048561;28;20324;-73
2023/01/15 01:59:19;;;;;;;6.70;1.20;;;28.60;55.30;;;;;;5048969;28;20584;-72
2023/01/15 02:01:47;;;;;;;4.50;1.30;;;28.60;55.00;;;;;;5049709;28;20259;-71
2023/01/15 02:04:15;;;;;;;2.23;1.00;;;28.60;55.40;;;;;;5049942;28;20234;-73
2023/01/15 02:06:42;;;;;;;4.40;1.10;;;28.70;55.30;;;;;;5051851;28;20176;-71
2023/01/15 02:09:10;;;;;;;4.93;1.43;;;28.90;54.40;;;;;;5051079;28;20635;-71
2023/01/15 02:11:38;;;;;;;4.80;1.20;;;28.90;55.30;;;;;;5050549;28;20180;-72
2023/01/15 02:14:15;;;;;;;7.87;1.30;;;28.50;56.00;;;;;;5051277;28;20176;-70
2023/01/15 02:17:06;;;;;;;4.83;1.50;;;28.50;55.90;;;;;;5050911;28;20261;-72
2023/01/15 02:19:45;;;;;;;4.10;1.20;;;28.60;55.90;;;;;;5050754;28;20207;-71
2023/01/15 02:22:27;;;;;;;5.10;1.40;;;28.80;55.80;;;;;;5052643;28;20210;-71
2023/01/15 02:25:31;;;;;;;4.43;1.20;;;28.80;55.90;;;;;;5055581;28;20175;-71
2023/01/15 02:28:04;;;;;;;6.13;1.50;;;29.10;55.60;;;;;;5052405;28;20175;-71
2023/01/15 02:30:43;;;;;;;5.33;1.40;;;29.30;55.20;;;;;;5055414;28;20191;-71
2023/01/15 02:33:24;;;;;;;4.27;1.50;;;29.20;55.70;;;;;;5053059;28;20586;-71
2023/01/15 02:36:05;;;;;;;6.40;1.30;;;29.30;55.10;;;;;;5053020;28;20187;-70
2023/01/15 02:38:38;;;;;;;6.30;1.23;;;29.30;55.10;;;;;;5043778;28;20196;-70
2023/01/15 02:41:15;;;;;;;6.37;1.70;;;29.20;55.70;;;;;;5048376;28;20282;-71
2023/01/15 02:43:54;;;;;;;5.03;1.47;;;29.20;55.90;;;;;;5053853;28;20263;-71
2023/01/15 02:46:26;;;;;;;2.93;1.10;;;29.40;54.90;;;;;;5053690;28;20284;-72
2023/01/15 02:48:58;;;;;;;8.40;1.33;;;29.30;55.80;;;;;;5052499;28;20648;-69
2023/01/15 02:51:33;;;;;;;7.10;1.30;;;29.50;54.50;;;;;;5053336;28;20223;-74
2023/01/15 02:54:04;;;;;;;5.70;1.40;;;29.30;54.90;;;;;;5053918;28;20187;-70
2023/01/15 02:56:34;;;;;;;3.73;1.43;;;29.40;54.60;;;;;;5053950;28;20223;-71
2023/01/15 02:59:07;;;;;;;6.93;1.53;;;29.60;54.30;;;;;;5054575;28;20183;-70
2023/01/15 03:01:50;;;;;;;4.90;1.47;;;29.80;54.00;;;;;;5054413;28;20665;-71
2023/01/15 03:04:37;;;;;;;3.80;1.30;;;30.10;53.50;;;;;;5052489;28;20206;-70
2023/01/15 03:07:31;;;;;;;4.00;1.37;;;30.00;52.40;;;;;;5054008;28;20184;-72
2023/01/15 03:09:59;;;;;;;8.07;2.33;;;30.10;52.70;;;;;;5054706;28;20263;-72
2023/01/15 03:13:02;;;;;;;5.90;2.47;;;30.30;51.90;;;;;;5054793;28;20175;-70
2023/01/15 03:19:10;;;;;;;7.13;1.80;;;29.90;51.40;;;;;;5052694;28;20605;-73
2023/01/15 03:22:01;;;;;;;6.13;1.83;;;30.00;51.70;;;;;;5054470;28;20222;-76
2023/01/15 03:24:35;;;;;;;5.80;1.67;;;30.00;52.00;;;;;;5050880;28;20176;-71
2023/01/15 03:27:03;;;;;;;4.60;1.40;;;30.40;51.70;;;;;;5053285;28;20182;-73
2023/01/15 03:29:36;;;;;;;7.37;1.67;;;30.30;51.30;;;;;;5054096;28;20539;-70
2023/01/15 03:32:04;;;;;;;3.17;1.13;;;30.20;51.30;;;;;;5053942;28;20172;-71
2023/01/15 03:34:43;;;;;;;3.57;1.40;;;30.80;50.60;;;;;;5053749;28;20180;-70
2023/01/15 03:37:12;;;;;;;4.03;1.20;;;30.50;50.70;;;;;;5053877;28;20629;-75
2023/01/15 03:39:40;;;;;;;3.75;1.20;;;30.80;50.10;;;;;;5054587;28;20642;-70
2023/01/15 03:42:17;;;;;;;4.45;1.42;;;30.70;50.00;;;;;;5053879;28;20192;-72
2023/01/15 03:45:06;;;;;;;5.10;2.63;;;30.60;50.00;;;;;;5053597;28;20183;-69
2023/01/15 03:47:58;;;;;;;6.37;3.40;;;30.70;49.70;;;;;;5053549;28;20175;-74
2023/01/15 03:50:36;;;;;;;7.35;2.20;;;30.70;51.10;;;;;;5052127;28;20227;-74
2023/01/15 03:53:19;;;;;;;7.90;3.80;;;30.60;51.20;;;;;;5052307;28;20171;-70
2023/01/15 03:55:58;;;;;;;5.75;2.67;;;30.80;50.80;;;;;;5051661;28;20215;-72
2023/01/15 03:58:40;;;;;;;5.65;3.10;;;30.50;49.60;;;;;;5049938;28;20188;-72
2023/01/15 04:01:13;;;;;;;5.57;2.85;;;30.20;51.50;;;;;;5048614;28;20179;-73
2023/01/15 04:03:41;;;;;;;12.07;7.18;;;30.40;51.60;;;;;;5049704;28;20237;-75
2023/01/15 04:06:09;;;;;;;7.28;4.03;;;30.60;51.00;;;;;;5056352;28;20218;-72
2023/01/15 04:08:40;;;;;;;5.15;3.17;;;30.50;50.10;;;;;;5055058;28;20264;-78
2023/01/15 04:11:07;;;;;;;5.80;4.60;;;30.70;48.80;;;;;;5050891;28;20546;-71
2023/01/15 04:13:34;;;;;;;16.40;11.05;;;30.50;48.40;;;;;;5053806;28;20183;-71
2023/01/15 04:16:02;;;;;;;14.75;8.35;;;30.80;49.00;;;;;;5052086;28;20626;-72
2023/01/15 04:18:29;;;;;;;16.27;8.68;;;30.80;48.40;;;;;;5036174;28;20188;-73
2023/01/15 04:20:57;;;;;;;8.10;4.18;;;30.80;48.50;;;;;;5049948;28;20176;-79
2023/01/15 04:23:24;;;;;;;55.47;40.97;;;30.80;47.80;;;;;;5052496;28;20635;-70
2023/01/15 04:25:52;;;;;;;16.55;11.60;;;30.90;48.40;;;;;;5053031;28;20172;-72
2023/01/15 04:28:19;;;;;;;12.40;6.32;;;31.00;48.30;;;;;;5051849;28;20233;-72
2023/01/15 04:30:46;;;;;;;6.45;2.60;;;31.30;48.50;;;;;;5058313;28;20716;-71
2023/01/15 04:33:14;;;;;;;4.15;2.10;;;31.70;47.40;;;;;;5048176;28;20180;-72
2023/01/15 04:35:41;;;;;;;5.75;2.45;;;31.30;48.90;;;;;;5052739;28;20329;-75
2023/01/15 04:38:08;;;;;;;7.00;2.97;;;31.90;47.40;;;;;;5051033;28;20223;-74
2023/01/15 04:46:06;;;;;;;6.03;1.88;;;30.90;51.80;;;;;;5051695;28;20191;-72
2023/01/15 04:48:34;;;;;;;7.05;2.00;;;31.60;50.20;;;;;;5052935;28;20183;-73
2023/01/15 04:51:05;;;;;;;7.38;1.75;;;31.90;49.60;;;;;;5051137;28;20262;-72
2023/01/15 04:53:33;;;;;;;4.60;1.77;;;31.60;49.70;;;;;;5051756;28;20669;-72
2023/01/15 04:56:04;;;;;;;5.05;1.45;;;32.30;48.40;;;;;;5050999;28;20234;-72
2023/01/15 04:58:33;;;;;;;4.45;1.15;;;31.70;49.00;;;;;;5048448;28;20210;-74
2023/01/15 05:01:00;;;;;;;8.10;2.05;;;31.60;48.70;;;;;;5050174;28;20183;-72
2023/01/15 05:03:31;;;;;;;4.47;1.73;;;31.30;50.00;;;;;;5052306;28;20219;-76
2023/01/15 05:06:02;;;;;;;5.53;1.60;;;31.10;50.40;;;;;;5052054;28;20266;-72
2023/01/15 05:08:30;;;;;;;5.15;1.70;;;31.50;49.80;;;;;;5052586;28;20247;-74
2023/01/15 05:11:02;;;;;;;6.30;1.55;;;31.40;50.00;;;;;;5052306;28;20180;-71
2023/01/15 05:13:32;;;;;;;8.88;1.92;;;31.80;49.20;;;;;;5052289;28;20183;-72
2023/01/15 05:16:25;;;;;;;5.97;1.50;;;31.70;49.20;;;;;;5052138;28;20595;-71
2023/01/15 05:18:54;;;;;;;8.68;1.95;;;31.30;50.30;;;;;;5049802;28;20271;-71
2023/01/15 05:21:25;;;;;;;5.30;1.77;;;31.30;50.00;;;;;;5047780;28;20266;-71
2023/01/15 05:23:56;;;;;;;8.43;1.85;;;31.50;49.50;;;;;;5050721;28;20180;-73
2023/01/15 05:26:24;;;;;;;8.02;1.73;;;31.30;49.80;;;;;;5042271;28;21930;-73
2023/01/15 05:28:54;;;;;;;6.88;1.55;;;31.20;49.50;;;;;;5050128;28;20175;-71
2023/01/15 05:31:22;;;;;;;8.55;1.90;;;31.30;49.60;;;;;;5050236;28;20179;-73
2023/01/15 05:33:50;;;;;;;7.93;1.33;;;31.70;48.80;;;;;;5049974;28;20202;-73
2023/01/15 05:36:21;;;;;;;7.57;1.80;;;31.80;48.40;;;;;;5051632;28;20202;-75
2023/01/15 05:38:49;;;;;;;7.32;1.55;;;31.60;49.50;;;;;;5050129;28;20196;-71
2023/01/15 05:44:07;;;;;;;6.10;1.70;;;31.40;49.10;;;;;;5050371;28;20245;-76
2023/01/15 05:46:36;;;;;;;7.90;2.08;;;31.90;48.50;;;;;;5048685;28;20192;-74
2023/01/15 05:49:06;;;;;;;7.50;1.50;;;31.80;49.00;;;;;;5049862;28;20183;-77
2023/01/15 05:51:38;;;;;;;7.55;1.75;;;31.80;49.40;;;;;;5046674;28;20230;-72
2023/01/15 05:54:07;;;;;;;7.25;1.90;;;31.40;50.70;;;;;;5046446;28;20234;-73
2023/01/15 05:56:37;;;;;;;4.63;1.45;;;31.40;50.70;;;;;;5049897;28;20235;-72
2023/01/15 05:59:06;;;;;;;8.10;1.60;;;31.70;50.40;;;;;;5053457;28;20274;-71
2023/01/15 06:01:34;;;;;;;6.95;1.90;;;31.70;49.00;;;;;;5055727;28;20184;-72
2023/01/15 06:04:04;;;;;;;9.73;1.85;;;31.70;49.20;;;;;;5055537;28;20182;-77
2023/01/15 06:06:32;;;;;;;12.18;2.08;;;31.60;50.00;;;;;;5055199;28;20184;-71
2023/01/15 06:09:00;;;;;;;8.82;2.25;;;31.40;50.30;;;;;;5055729;28;20207;-73
2023/01/15 06:11:28;;;;;;;5.95;1.52;;;31.40;50.40;;;;;;5055790;28;20192;-74
2023/01/15 06:13:55;;;;;;;10.27;1.92;;;31.40;50.60;;;;;;5057885;28;20584;-73
2023/01/15 06:16:23;;;;;;;6.30;1.80;;;32.30;48.90;;;;;;5054033;28;20623;-74
2023/01/15 06:18:50;;;;;;;6.68;2.00;;;32.10;49.10;;;;;;5052329;28;20537;-71
2023/01/15 06:21:18;;;;;;;7.35;1.75;;;31.90;49.80;;;;;;5055667;28;20582;-72
2023/01/15 06:23:46;;;;;;;11.07;1.73;;;31.80;49.50;;;;;;5054120;28;20199;-72
2023/01/15 06:26:16;;;;;;;8.68;1.92;;;31.60;50.90;;;;;;5055119;28;20176;-71
2023/01/15 06:28:45;;;;;;;7.53;2.00;;;31.50;50.80;;;;;;5039058;28;20182;-71
2023/01/15 06:31:15;;;;;;;8.88;2.15;;;31.00;51.60;;;;;;5053161;28;20184;-71
2023/01/15 06:33:43;;;;;;;7.47;1.95;;;32.00;49.40;;;;;;5053804;28;20253;-71
2023/01/15 06:36:16;;;;;;;7.57;2.22;;;32.10;49.70;;;;;;5052086;28;20218;-69
2023/01/15 06:38:44;;;;;;;8.05;1.92;;;31.80;49.60;;;;;;5058232;28;20195;-71
2023/01/15 06:49:36;;;;;;;9.90;1.98;;;31.90;50.10;;;;;;5066917;28;20182;-70
2023/01/15 06:52:04;;;;;;;8.27;2.08;;;31.50;49.90;;;;;;5059992;28;20195;-72
2023/01/15 06:54:32;;;;;;;8.07;2.03;;;31.40;50.70;;;;;;5059679;28;20191;-68
2023/01/15 06:57:00;;;;;;;9.23;2.00;;;31.20;50.50;;;;;;5066456;28;22010;-70
2023/01/15 06:59:27;;;;;;;9.00;2.33;;;31.00;51.40;;;;;;5053720;28;20211;-69
2023/01/15 07:01:54;;;;;;;8.10;2.00;;;31.10;51.10;;;;;;5058547;28;20681;-73
2023/01/15 07:04:22;;;;;;;7.72;1.98;;;31.50;50.30;;;;;;5056409;28;20598;-71
2023/01/15 07:06:49;;;;;;;13.40;2.28;;;31.30;50.60;;;;;;5057721;28;20245;-72
2023/01/15 07:09:16;;;;;;;9.55;1.90;;;31.40;50.40;;;;;;5059785;28;20627;-68
2023/01/15 07:11:50;;;;;;;10.65;2.30;;;30.90;50.90;;;;;;5069061;28;20183;-75
2023/01/15 07:14:19;;;;;;;8.95;1.95;;;30.30;52.40;;;;;;5061682;28;20186;-72
2023/01/15 07:16:47;;;;;;;10.13;2.20;;;29.80;54.30;;;;;;5062545;28;20546;-72
2023/01/15 07:19:15;;;;;;;12.23;2.40;;;28.60;57.90;;;;;;5069353;28;20179;-72
2023/01/15 07:21:42;;;;;;;9.80;2.33;;;27.80;59.70;;;;;;5072234;28;20180;-73
2023/01/15 07:24:10;;;;;;;6.57;2.00;;;27.50;61.00;;;;;;5064787;28;20183;-71
2023/01/15 07:26:38;;;;;;;11.27;2.40;;;27.70;60.80;;;;;;5058684;28;20205;-70
2023/01/15 07:29:05;;;;;;;6.87;2.00;;;27.60;62.00;;;;;;5065415;28;20187;-71
2023/01/15 07:31:33;;;;;;;13.10;2.50;;;27.90;60.90;;;;;;5070030;28;20179;-73
2023/01/15 07:34:01;;;;;;;13.23;2.63;;;28.00;60.90;;;;;;5057450;28;20187;-74
2023/01/15 07:36:28;;;;;;;12.83;2.77;;;27.40;63.10;;;;;;5070894;28;20564;-73
2023/01/15 07:38:55;;;;;;;11.77;2.60;;;27.30;64.30;;;;;;5052557;28;20708;-75
2023/01/15 07:49:47;;;;;;;12.90;2.57;;;26.30;68.00;;;;;;5055020;28;20271;-73
2023/01/15 07:52:19;;;;;;;13.97;3.10;;;26.30;68.10;;;;;;5065083;28;20218;-71
2023/01/15 07:54:48;;;;;;;14.57;2.73;;;26.10;69.20;;;;;;5065230;28;20203;-69
2023/01/15 07:57:19;;;;;;;18.37;3.20;;;26.10;69.10;;;;;;5059879;28;20230;-67
2023/01/15 07:59:46;;;;;;;11.60;2.33;;;26.20;69.00;;;;;;5067507;28;20604;-76
2023/01/15 08:02:14;;;;;;;10.20;2.57;;;26.00;69.00;;;;;;5066548;28;20187;-72
2023/01/15 08:04:41;;;;;;;11.37;2.50;;;26.00;69.70;;;;;;5060562;28;20180;-70
2023/01/15 08:07:09;;;;;;;16.33;3.40;;;25.80;70.30;;;;;;5060543;28;20237;-72
2023/01/15 08:09:37;;;;;;;13.77;2.80;;;25.70;71.00;;;;;;5056133;28;20249;-73
2023/01/15 08:17:36;;;;;;;12.27;3.03;;;25.60;72.00;;;;;;5065458;28;20257;-73
2023/01/15 08:20:06;;;;;;;13.47;2.73;;;25.50;72.00;;;;;;5039274;28;20593;-79
2023/01/15 08:22:33;;;;;;;8.77;2.47;;;25.50;72.30;;;;;;5050588;28;20186;-71
2023/01/15 08:25:01;;;;;;;19.10;2.83;;;25.60;72.70;;;;;;5058520;28;20623;-73
2023/01/15 08:27:29;;;;;;;14.33;2.60;;;25.60;72.70;;;;;;5066187;28;20557;-76
2023/01/15 08:29:57;;;;;;;17.37;2.93;;;25.70;72.70;;;;;;5050817;28;20696;-76
2023/01/15 08:32:25;;;;;;;18.80;3.83;;;25.70;72.60;;;;;;5053384;28;20272;-73
2023/01/15 08:34:52;;;;;;;16.03;3.00;;;25.70;72.70;;;;;;5050040;28;20184;-73
2023/01/15 08:37:20;;;;;;;22.10;3.67;;;25.60;72.70;;;;;;5051926;28;20269;-75
2023/01/15 08:39:47;;;;;;;14.57;3.07;;;25.50;72.80;;;;;;5046622;28;20529;-74
2023/01/15 08:42:14;;;;;;;18.53;2.93;;;25.40;73.20;;;;;;5051124;28;20188;-77
2023/01/15 08:44:41;;;;;;;19.50;4.00;;;25.40;73.50;;;;;;5051905;28;20230;-77
2023/01/15 08:47:09;;;;;;;15.43;2.57;;;25.40;73.30;;;;;;5052014;28;20191;-75
2023/01/15 08:49:37;;;;;;;13.73;3.03;;;25.30;73.10;;;;;;5051815;28;20238;-75
2023/01/15 08:52:04;;;;;;;17.70;3.97;;;25.30;73.60;;;;;;5051425;28;20235;-73
2023/01/15 08:54:32;;;;;;;14.37;2.37;;;25.20;73.50;;;;;;5050972;28;20190;-75
2023/01/15 08:57:00;;;;;;;13.53;3.00;;;25.10;73.70;;;;;;5050746;28;20627;-78
2023/01/15 08:59:27;;;;;;;16.70;3.17;;;25.20;73.40;;;;;;5050476;28;20204;-71
2023/01/15 09:01:55;;;;;;;11.83;2.77;;;25.10;73.30;;;;;;5050882;28;20184;-74
2023/01/15 09:04:22;;;;;;;13.43;2.80;;;25.10;73.40;;;;;;5051205;28;20199;-74
2023/01/15 09:06:50;;;;;;;16.10;3.00;;;25.10;73.00;;;;;;5051952;28;20259;-76
2023/01/15 09:09:18;;;;;;;18.30;3.27;;;25.00;73.20;;;;;;5051408;28;20213;-74
2023/01/15 09:11:45;;;;;;;14.43;2.93;;;25.00;73.00;;;;;;5051396;28;20179;-71
2023/01/15 09:14:14;;;;;;;14.83;3.23;;;25.10;73.00;;;;;;5050917;28;20222;-73
2023/01/15 09:16:42;;;;;;;19.00;2.90;;;25.00;73.10;;;;;;5051883;28;20561;-76
2023/01/15 09:19:10;;;;;;;13.03;2.40;;;25.10;73.10;;;;;;5051418;28;20187;-75
2023/01/15 09:21:37;;;;;;;13.23;2.67;;;25.10;73.00;;;;;;5051863;28;20168;-73
2023/01/15 09:24:05;;;;;;;15.13;3.10;;;25.10;72.70;;;;;;5050871;28;20260;-73
2023/01/15 09:26:38;;;;;;;13.47;2.47;;;25.10;72.90;;;;;;5051416;28;20171;-75
2023/01/15 09:29:06;;;;;;;19.43;3.20;;;25.10;73.00;;;;;;5050447;28;20184;-72
2023/01/15 09:31:33;;;;;;;22.60;3.17;;;25.00;72.80;;;;;;5053217;28;20187;-69
2023/01/15 09:34:01;;;;;;;11.03;2.47;;;25.00;73.10;;;;;;5054886;28;20188;-71
2023/01/15 09:36:33;;;;;;;14.27;2.60;;;25.00;73.20;;;;;;5055599;28;20654;-73
2023/01/15 09:39:02;;;;;;;16.13;3.53;;;25.10;73.20;;;;;;5053605;28;20184;-76
2023/01/15 09:42:05;;;;;;;13.70;2.50;;;25.10;72.90;;;;;;5053922;28;20194;-75
2023/01/15 09:44:47;;;;;;;10.90;2.60;;;25.00;73.00;;;;;;5048144;28;20182;-77
2023/01/15 09:47:39;;;;;;;17.27;2.90;;;25.00;72.90;;;;;;5048444;28;20532;-76
2023/01/15 09:50:55;;;;;;;20.63;3.23;;;24.90;72.70;;;;;;5053694;28;20274;-72
2023/01/15 09:53:39;;;;;;;18.20;3.53;;;24.80;72.90;;;;;;5054031;28;20184;-70
2023/01/15 09:56:26;;;;;;;13.40;2.30;;;24.90;73.40;;;;;;5054433;28;20172;-68
2023/01/15 09:58:55;;;;;;;17.03;2.80;;;24.80;73.90;;;;;;5052435;28;20210;-71
2023/01/15 10:01:33;;;;;;;13.37;2.57;;;24.90;74.50;;;;;;5054774;28;20194;-77
2023/01/15 10:04:56;;;;;;;16.53;3.33;;;24.90;74.60;;;;;;5053772;28;20178;-73
2023/01/15 10:07:54;;;;;;;15.23;3.30;;;24.90;74.60;;;;;;5010299;28;20192;-75
2023/01/15 10:10:32;;;;;;;13.47;3.13;;;24.80;74.70;;;;;;5039208;28;20681;-70
2023/01/15 10:13:10;;;;;;;13.43;2.43;;;24.70;75.00;;;;;;5053730;28;20548;-75
2023/01/15 10:15:46;;;;;;;16.37;3.13;;;24.70;75.20;;;;;;5055256;28;20218;-77
2023/01/15 10:18:21;;;;;;;13.13;2.53;;;24.80;75.00;;;;;;5053545;28;20212;-73
2023/01/15 10:20:55;;;;;;;15.03;2.80;;;24.70;75.00;;;;;;5049879;28;20258;-77
2023/01/15 10:24:04;;;;;;;15.67;3.20;;;24.70;74.80;;;;;;5058747;28;20553;-74
2023/01/15 10:26:43;;;;;;;14.13;2.80;;;24.70;74.60;;;;;;5058110;28;20194;-72
2023/01/15 10:29:30;;;;;;;13.60;2.80;;;24.70;74.50;;;;;;5051264;28;20195;-76
2023/01/15 10:32:19;;;;;;;16.07;2.87;;;24.70;74.30;;;;;;5056247;28;20213;-72
2023/01/15 10:35:23;;;;;;;12.47;2.90;;;24.70;74.20;;;;;;5054923;28;20226;-73
2023/01/15 10:38:08;;;;;;;16.87;3.00;;;24.70;73.70;;;;;;5063788;28;20207;-75
2023/01/15 10:40:57;;;;;;;15.10;3.10;;;24.60;73.60;;;;;;5051261;28;20180;-75
2023/01/15 10:43:47;;;;;;;14.53;2.90;;;24.60;73.50;;;;;;5062046;28;20183;-74
2023/01/15 10:46:17;;;;;;;16.37;2.90;;;24.60;73.80;;;;;;5061743;28;20630;-72
2023/01/15 10:49:01;;;;;;;14.70;2.87;;;24.60;74.10;;;;;;5060152;28;20212;-74
2023/01/15 10:51:42;;;;;;;15.77;2.73;;;24.60;73.90;;;;;;5061407;28;20249;-73
2023/01/15 10:54:26;;;;;;;10.07;2.40;;;24.50;74.00;;;;;;5059597;28;20179;-75
2023/01/15 10:57:08;;;;;;;14.90;2.73;;;24.50;74.30;;;;;;5061331;28;20289;-74
2023/01/15 10:59:46;;;;;;;22.60;3.57;;;24.50;74.30;;;;;;5060183;28;20192;-75
2023/01/15 11:02:45;;;;;;;14.80;2.67;;;24.50;74.30;;;;;;5054960;28;20544;-74
2023/01/15 11:05:18;;;;;;;13.17;2.73;;;24.60;74.50;;;;;;5042247;28;20667;-73
2023/01/15 11:07:51;;;;;;;9.40;2.40;;;24.50;74.80;;;;;;5052560;28;20168;-70
2023/01/15 11:10:21;;;;;;;11.83;3.20;;;24.50;74.70;;;;;;5047010;28;20188;-74
2023/01/15 11:21:26;;;;;;;15.13;2.50;;;24.30;75.00;;;;;;5062492;28;20187;-72
2023/01/15 11:23:55;;;;;;;10.73;2.00;;;24.30;75.00;;;;;;5074525;28;20213;-71
2023/01/15 11:26:32;;;;;;;16.10;2.83;;;24.30;74.80;;;;;;5064714;28;20209;-69
2023/01/15 11:29:11;;;;;;;11.43;2.90;;;24.20;75.10;;;;;;5073932;28;20648;-69
2023/01/15 11:31:40;;;;;;;18.43;3.17;;;24.20;75.30;;;;;;5074359;28;20183;-72
2023/01/15 11:34:20;;;;;;;12.50;2.80;;;24.20;75.30;;;;;;5073303;28;20380;-73
2023/01/15 11:36:48;;;;;;;15.87;2.67;;;24.20;75.40;;;;;;5064458;28;20206;-72
2023/01/15 11:39:26;;;;;;;11.03;2.43;;;24.20;75.40;;;;;;5067990;28;20262;-73
2023/01/15 11:51:09;;;;;;;9.90;2.33;;;24.10;75.80;;;;;;5053801;28;20234;-71
2023/01/15 11:54:03;;;;;;;12.93;2.83;;;24.00;75.90;;;;;;5051626;28;20176;-71
2023/01/15 11:56:32;;;;;;;13.93;2.53;;;24.00;76.10;;;;;;5053667;28;20179;-71
2023/01/15 11:59:04;;;;;;;16.43;2.73;;;24.00;76.10;;;;;;5052386;28;20646;-69
2023/01/15 12:01:38;;;;;;;15.17;3.17;;;24.00;76.30;;;;;;5053611;28;20175;-71
2023/01/15 12:04:24;;;;;;;13.37;2.63;;;24.00;76.40;;;;;;5053470;28;20215;-73
2023/01/15 12:06:55;;;;;;;15.40;2.90;;;23.90;76.60;;;;;;5053139;28;20207;-72
2023/01/15 12:09:54;;;;;;;15.57;2.87;;;23.90;76.70;;;;;;5053923;28;20211;-77
2023/01/15 12:13:00;;;;;;;13.03;2.73;;;24.00;76.60;;;;;;5053537;28;20198;-75
2023/01/15 12:15:53;;;;;;;15.00;2.70;;;23.90;76.50;;;;;;5052861;28;20205;-77
2023/01/15 12:18:52;;;;;;;9.63;2.40;;;23.90;76.80;;;;;;5058696;28;20215;-75
2023/01/15 12:21:20;;;;;;;13.87;2.53;;;23.90;76.80;;;;;;5049739;28;20594;-73
2023/01/15 12:24:18;;;;;;;13.97;2.57;;;23.80;76.90;;;;;;5060717;28;20258;-77
2023/01/15 12:26:58;;;;;;;14.63;2.50;;;23.80;77.20;;;;;;5066226;28;20167;-74
2023/01/15 12:29:34;;;;;;;14.97;2.33;;;23.80;77.20;;;;;;5072655;28;20186;-70
2023/01/15 12:32:20;;;;;;;17.10;3.10;;;23.80;77.30;;;;;;5059761;28;20179;-76
2023/01/15 12:35:13;;;;;;;18.10;3.10;;;23.80;77.50;;;;;;5067600;28;20179;-71
2023/01/15 12:37:50;;;;;;;14.30;2.73;;;23.80;77.50;;;;;;5067421;28;20232;-75
2023/01/15 12:40:24;;;;;;;15.33;3.17;;;23.80;77.60;;;;;;5068532;28;20276;-76
2023/01/15 12:45:51;;;;;;;14.30;2.70;;;23.70;77.60;;;;;;5061913;28;20198;-76
2023/01/15 12:48:31;;;;;;;20.33;2.93;;;23.70;77.70;;;;;;5052668;28;20180;-76
2023/01/15 12:51:03;;;;;;;18.37;3.00;;;23.70;78.00;;;;;;5048874;28;20219;-76
2023/01/15 12:53:48;;;;;;;10.53;2.33;;;23.60;78.10;;;;;;5050767;28;20670;-76
2023/01/15 12:56:41;;;;;;;10.53;2.57;;;23.60;78.30;;;;;;5052258;28;20282;-74
2023/01/15 12:59:15;;;;;;;14.63;3.00;;;23.60;78.40;;;;;;5051050;28;20188;-76
2023/01/15 13:01:54;;;;;;;18.23;3.20;;;23.60;78.50;;;;;;5052189;28;20594;-76
2023/01/15 13:04:58;;;;;;;11.57;2.83;;;23.60;78.50;;;;;;5050516;28;20172;-77
2023/01/15 13:07:55;;;;;;;17.63;2.80;;;23.60;78.60;;;;;;5042542;28;20199;-79
2023/01/15 13:10:26;;;;;;;17.60;2.80;;;23.60;78.90;;;;;;5035407;28;20230;-77
2023/01/15 13:13:08;;;;;;;13.97;3.17;;;23.50;79.10;;;;;;5052287;28;20175;-77
2023/01/15 13:15:39;;;;;;;15.03;2.67;;;23.50;79.20;;;;;;5052158;28;20278;-76
2023/01/15 13:18:23;;;;;;;14.60;2.80;;;23.50;79.40;;;;;;5049886;28;20215;-76
2023/01/15 13:20:53;;;;;;;10.03;2.63;;;23.50;79.40;;;;;;5050470;28;20180;-77
2023/01/15 13:23:39;;;;;;;17.17;3.10;;;23.50;79.60;;;;;;5050766;28;20196;-76
2023/01/15 13:26:47;;;;;;;11.00;2.10;;;23.50;79.50;;;;;;5052032;28;20218;-76
2023/01/15 13:29:38;;;;;;;13.40;2.83;;;23.50;79.60;;;;;;5050042;28;20234;-76
2023/01/15 13:32:12;;;;;;;22.67;3.00;;;23.50;79.60;;;;;;5051911;28;20180;-77
2023/01/15 13:34:49;;;;;;;13.83;3.00;;;23.50;79.60;;;;;;5040614;28;20180;-79
2023/01/15 13:37:28;;;;;;;14.77;2.73;;;23.50;79.70;;;;;;5048736;28;20199;-76
2023/01/15 13:40:23;;;;;;;14.83;2.60;;;23.50;79.50;;;;;;5051271;28;20558;-75
2023/01/15 13:42:51;;;;;;;9.87;2.60;;;23.70;78.60;;;;;;5045500;28;20184;-75
2023/01/15 13:45:41;;;;;;;10.60;2.73;;;23.90;77.80;;;;;;5051197;28;20188;-71
2023/01/15 13:48:16;;;;;;;10.10;2.47;;;23.90;77.10;;;;;;5043653;28;20188;-76
2023/01/15 13:50:53;;;;;;;12.47;2.50;;;24.00;76.70;;;;;;5051572;28;20214;-77
2023/01/15 13:53:37;;;;;;;11.13;2.37;;;24.10;76.40;;;;;;5051890;28;20593;-77
2023/01/15 13:56:16;;;;;;;16.27;2.40;;;24.00;76.80;;;;;;5052394;28;20184;-77
2023/01/15 13:58:54;;;;;;;12.87;2.37;;;23.80;77.30;;;;;;5051234;28;20211;-76
2023/01/15 14:01:30;;;;;;;11.07;2.53;;;23.80;77.40;;;;;;5051735;28;20179;-76
2023/01/15 14:04:11;;;;;;;13.03;2.77;;;23.70;77.90;;;;;;5051224;28;20230;-75
2023/01/15 14:06:52;;;;;;;16.27;2.73;;;23.70;78.10;;;;;;5052082;28;20237;-78
2023/01/15 14:09:22;;;;;;;15.40;2.57;;;23.60;78.20;;;;;;5050197;28;20534;-71
2023/01/15 14:12:32;;;;;;;12.87;2.30;;;23.60;78.10;;;;;;5051883;28;20199;-77
2023/01/15 14:15:28;;;;;;;12.23;2.50;;;23.60;78.30;;;;;;5040399;28;20245;-78
2023/01/15 14:18:34;;;;;;;11.73;2.67;;;23.50;78.40;;;;;;5036022;28;20257;-74